CFG6OF LGKR-LIMJ
Flight info
| Callsign | CFG6OF |
|---|---|
| Flight time | 1h 37m |
| Altitude | 38000 |
| Route | TIGRA DCT FASAN DCT BAR DCT URIPI DCT TUFTE DCT KATAR DCT OSMOX DCT KALMO |
| Aircraft | A20N/M-SDE2E3FGHIRWXY/LB1 |
Departure
| Time | 2026-04-21 17:25 |
|---|---|
| Airport | Corfu Ioannis Kapodistrias International Airport (LGKR) |
Arrival
| Time | 2026-04-21 19:02 |
|---|---|
| Airport | Genoa Cristoforo Colombo Airport (LIMJ) |
| Time | Latitude | Longitude | Altitude | Speed | Heading |
|---|---|---|---|---|---|
| 2026-04-21 16:55 | 39.60836 | 19.91332 | 8 ft | 0 kts | 78° |
| 2026-04-21 17:10 | 39.60834 | 19.91320 | 8 ft | 3 kts | 78° |
| 2026-04-21 17:11 | 39.60829 | 19.91289 | 10 ft | 4 kts | 81° |
| 2026-04-21 17:11 | 39.60827 | 19.91251 | 11 ft | 4 kts | 90° |
| 2026-04-21 17:11 | 39.60824 | 19.91214 | 7 ft | 4 kts | 57° |
| 2026-04-21 17:11 | 39.60801 | 19.91192 | 10 ft | 4 kts | 0° |
| 2026-04-21 17:12 | 39.60791 | 19.91193 | 7 ft | 0 kts | 347° |
| 2026-04-21 17:13 | 39.60792 | 19.91193 | 7 ft | 1 kts | 347° |
| 2026-04-21 17:13 | 39.60831 | 19.91183 | 8 ft | 10 kts | 351° |
| 2026-04-21 17:13 | 39.60918 | 19.91161 | 9 ft | 15 kts | 348° |
| 2026-04-21 17:14 | 39.61034 | 19.91132 | 7 ft | 19 kts | 346° |
| 2026-04-21 17:14 | 39.61156 | 19.91096 | 8 ft | 14 kts | 347° |
| 2026-04-21 17:14 | 39.61176 | 19.91089 | 8 ft | 0 kts | 342° |
| 2026-04-21 17:21 | 39.61193 | 19.91081 | 9 ft | 6 kts | 338° |
| 2026-04-21 17:21 | 39.61235 | 19.91002 | 8 ft | 14 kts | 289° |
| 2026-04-21 17:21 | 39.61201 | 19.90952 | 6 ft | 0 kts | 168° |
| 2026-04-21 17:24 | 39.61201 | 19.90953 | 6 ft | 1 kts | 168° |
| 2026-04-21 17:24 | 39.61082 | 19.90984 | 6 ft | 49 kts | 168° |
| 2026-04-21 17:24 | 39.60515 | 19.91134 | 6 ft | 112 kts | 168° |
| 2026-04-21 17:24 | 39.59656 | 19.91361 | 281 ft | 128 kts | 170° |
| 2026-04-21 17:25 | 39.58782 | 19.91589 | 791 ft | 131 kts | 155° |
| 2026-04-21 17:25 | 39.58016 | 19.92298 | 1149 ft | 146 kts | 136° |
| 2026-04-21 17:25 | 39.57447 | 19.93501 | 1436 ft | 169 kts | 111° |
| 2026-04-21 17:25 | 39.57274 | 19.95070 | 1831 ft | 184 kts | 89° |
| 2026-04-21 17:26 | 39.57583 | 19.96749 | 2229 ft | 201 kts | 68° |
| 2026-04-21 17:26 | 39.58374 | 19.98305 | 2712 ft | 214 kts | 46° |
| 2026-04-21 17:26 | 39.59558 | 19.99462 | 3436 ft | 215 kts | 27° |
| 2026-04-21 17:26 | 39.60981 | 20.00080 | 4181 ft | 218 kts | 7° |
| 2026-04-21 17:27 | 39.62501 | 20.00085 | 4966 ft | 220 kts | 348° |
| 2026-04-21 17:27 | 39.63950 | 19.99472 | 5774 ft | 219 kts | 330° |
| 2026-04-21 17:27 | 39.65169 | 19.98312 | 6598 ft | 217 kts | 311° |
| 2026-04-21 17:27 | 39.66053 | 19.96726 | 7306 ft | 220 kts | 296° |
| 2026-04-21 17:28 | 39.66763 | 19.94883 | 7840 ft | 237 kts | 295° |
| 2026-04-21 17:28 | 39.67506 | 19.92867 | 8317 ft | 258 kts | 295° |
| 2026-04-21 17:28 | 39.68304 | 19.90712 | 9068 ft | 267 kts | 296° |
| 2026-04-21 17:28 | 39.69134 | 19.88579 | 10065 ft | 268 kts | 297° |
| 2026-04-21 17:29 | 39.70024 | 19.86377 | 10648 ft | 285 kts | 298° |
| 2026-04-21 17:29 | 39.71003 | 19.84011 | 10978 ft | 309 kts | 298° |
| 2026-04-21 17:29 | 39.72056 | 19.81490 | 11519 ft | 321 kts | 298° |
| 2026-04-21 17:29 | 39.73128 | 19.78929 | 12412 ft | 324 kts | 298° |
| 2026-04-21 17:30 | 39.74212 | 19.76334 | 13293 ft | 328 kts | 298° |
| 2026-04-21 17:30 | 39.75294 | 19.73740 | 14112 ft | 331 kts | 298° |
| 2026-04-21 17:30 | 39.76398 | 19.71091 | 14903 ft | 333 kts | 298° |
| 2026-04-21 17:30 | 39.77506 | 19.68429 | 15684 ft | 336 kts | 298° |
| 2026-04-21 17:31 | 39.78625 | 19.65739 | 16446 ft | 339 kts | 298° |
| 2026-04-21 17:31 | 39.79750 | 19.63028 | 17206 ft | 342 kts | 298° |
| 2026-04-21 17:31 | 39.80871 | 19.60329 | 17946 ft | 345 kts | 298° |
| 2026-04-21 17:31 | 39.82017 | 19.57575 | 18611 ft | 348 kts | 298° |
| 2026-04-21 17:32 | 39.82795 | 19.55695 | 19055 ft | 349 kts | 298° |
| 2026-04-21 17:32 | 39.84329 | 19.51982 | 19910 ft | 353 kts | 298° |
| 2026-04-21 17:32 | 39.85501 | 19.49146 | 20542 ft | 356 kts | 298° |
| 2026-04-21 17:32 | 39.86681 | 19.46291 | 21170 ft | 359 kts | 298° |
| 2026-04-21 17:33 | 39.87858 | 19.43441 | 21788 ft | 362 kts | 298° |
| 2026-04-21 17:33 | 39.89057 | 19.40537 | 22418 ft | 365 kts | 298° |
| 2026-04-21 17:33 | 39.90268 | 19.37599 | 23020 ft | 368 kts | 298° |
| 2026-04-21 17:33 | 39.91469 | 19.34686 | 23595 ft | 371 kts | 298° |
| 2026-04-21 17:34 | 39.92696 | 19.31705 | 24106 ft | 373 kts | 298° |
| 2026-04-21 17:34 | 39.93926 | 19.28712 | 24613 ft | 376 kts | 298° |
| 2026-04-21 17:34 | 39.95162 | 19.25701 | 25097 ft | 378 kts | 298° |
| 2026-04-21 17:34 | 39.96406 | 19.22670 | 25570 ft | 381 kts | 298° |
| 2026-04-21 17:35 | 39.97660 | 19.19613 | 26039 ft | 383 kts | 298° |
| 2026-04-21 17:35 | 39.98919 | 19.16541 | 26505 ft | 386 kts | 298° |
| 2026-04-21 17:35 | 40.00187 | 19.13443 | 26937 ft | 388 kts | 298° |
| 2026-04-21 17:35 | 40.01462 | 19.10326 | 27380 ft | 391 kts | 298° |
| 2026-04-21 17:36 | 40.02745 | 19.07183 | 27798 ft | 393 kts | 298° |
| 2026-04-21 17:36 | 40.04034 | 19.04026 | 28224 ft | 395 kts | 298° |
| 2026-04-21 17:36 | 40.05335 | 19.00848 | 28604 ft | 398 kts | 299° |
| 2026-04-21 17:36 | 40.06808 | 18.97817 | 28976 ft | 401 kts | 304° |
| 2026-04-21 17:37 | 40.08396 | 18.94815 | 29347 ft | 403 kts | 304° |
| 2026-04-21 17:37 | 40.09992 | 18.91783 | 29719 ft | 405 kts | 303° |
| 2026-04-21 17:37 | 40.11051 | 18.89767 | 29963 ft | 407 kts | 303° |
| 2026-04-21 17:37 | 40.13203 | 18.85663 | 30374 ft | 410 kts | 303° |
| 2026-04-21 17:38 | 40.14819 | 18.82576 | 30701 ft | 412 kts | 303° |
| 2026-04-21 17:38 | 40.16442 | 18.79473 | 31037 ft | 414 kts | 303° |
| 2026-04-21 17:38 | 40.17517 | 18.77416 | 31283 ft | 414 kts | 303° |
| 2026-04-21 17:38 | 40.19670 | 18.73292 | 31851 ft | 413 kts | 303° |
| 2026-04-21 17:39 | 40.21288 | 18.70189 | 32278 ft | 411 kts | 303° |
| 2026-04-21 17:39 | 40.22361 | 18.68130 | 32565 ft | 411 kts | 303° |
| 2026-04-21 17:39 | 40.23969 | 18.65042 | 32975 ft | 409 kts | 303° |
| 2026-04-21 17:39 | 40.26091 | 18.60960 | 33510 ft | 408 kts | 303° |
| 2026-04-21 17:40 | 40.27688 | 18.57886 | 33892 ft | 407 kts | 303° |
| 2026-04-21 17:40 | 40.28742 | 18.55855 | 34125 ft | 406 kts | 303° |
| 2026-04-21 17:40 | 40.30329 | 18.52796 | 34432 ft | 405 kts | 303° |
| 2026-04-21 17:40 | 40.31913 | 18.49736 | 34730 ft | 405 kts | 303° |
| 2026-04-21 17:41 | 40.33493 | 18.46685 | 35013 ft | 404 kts | 303° |
| 2026-04-21 17:41 | 40.35071 | 18.43632 | 35304 ft | 404 kts | 303° |
| 2026-04-21 17:41 | 40.36644 | 18.40587 | 35579 ft | 403 kts | 303° |
| 2026-04-21 17:41 | 40.38216 | 18.37539 | 35831 ft | 403 kts | 303° |
| 2026-04-21 17:42 | 40.39787 | 18.34492 | 36089 ft | 403 kts | 303° |
| 2026-04-21 17:42 | 40.41355 | 18.31447 | 36330 ft | 403 kts | 303° |
| 2026-04-21 17:42 | 40.42905 | 18.28436 | 36567 ft | 402 kts | 303° |
| 2026-04-21 17:42 | 40.44471 | 18.25389 | 36802 ft | 402 kts | 302° |
| 2026-04-21 17:43 | 40.46036 | 18.22342 | 37030 ft | 402 kts | 302° |
| 2026-04-21 17:43 | 40.47599 | 18.19296 | 37249 ft | 402 kts | 302° |
| 2026-04-21 17:43 | 40.49162 | 18.16246 | 37452 ft | 402 kts | 302° |
| 2026-04-21 17:43 | 40.50723 | 18.13196 | 37648 ft | 401 kts | 302° |
| 2026-04-21 17:44 | 40.52281 | 18.10151 | 37854 ft | 401 kts | 302° |
| 2026-04-21 17:44 | 40.53840 | 18.07101 | 37888 ft | 401 kts | 302° |
| 2026-04-21 17:44 | 40.56930 | 18.01044 | 37890 ft | 400 kts | 302° |
| 2026-04-21 17:45 | 40.60029 | 17.94959 | 37885 ft | 400 kts | 302° |
| 2026-04-21 17:45 | 40.63128 | 17.88861 | 37893 ft | 400 kts | 302° |
| 2026-04-21 17:46 | 40.66205 | 17.82797 | 37889 ft | 400 kts | 302° |
| 2026-04-21 17:46 | 40.69291 | 17.76701 | 37888 ft | 400 kts | 302° |
| 2026-04-21 17:47 | 40.72376 | 17.70596 | 37896 ft | 400 kts | 302° |
| 2026-04-21 17:47 | 40.75455 | 17.64491 | 37918 ft | 400 kts | 302° |
| 2026-04-21 17:48 | 40.78531 | 17.58379 | 37923 ft | 400 kts | 302° |
| 2026-04-21 17:48 | 40.81601 | 17.52266 | 37922 ft | 399 kts | 302° |
| 2026-04-21 17:49 | 40.84668 | 17.46150 | 37933 ft | 399 kts | 302° |
| 2026-04-21 17:49 | 40.87577 | 17.39963 | 37937 ft | 398 kts | 298° |
| 2026-04-21 17:50 | 40.90330 | 17.33612 | 37940 ft | 398 kts | 299° |
| 2026-04-21 17:50 | 40.93091 | 17.27277 | 37938 ft | 397 kts | 298° |
| 2026-04-21 17:51 | 40.95836 | 17.20947 | 37935 ft | 397 kts | 298° |
| 2026-04-21 17:51 | 40.98574 | 17.14609 | 37937 ft | 396 kts | 298° |
| 2026-04-21 17:52 | 41.01307 | 17.08271 | 37940 ft | 396 kts | 298° |
| 2026-04-21 17:52 | 41.04032 | 17.01939 | 37922 ft | 395 kts | 298° |
| 2026-04-21 17:53 | 41.06750 | 16.95606 | 37906 ft | 395 kts | 298° |
| 2026-04-21 17:53 | 41.09464 | 16.89272 | 37901 ft | 395 kts | 298° |
| 2026-04-21 17:54 | 41.12161 | 16.82964 | 37906 ft | 394 kts | 298° |
| 2026-04-21 17:54 | 41.14852 | 16.76664 | 37906 ft | 394 kts | 299° |
| 2026-04-21 17:55 | 41.17737 | 16.70488 | 37901 ft | 394 kts | 301° |
| 2026-04-21 17:55 | 41.20682 | 16.64334 | 37904 ft | 394 kts | 301° |
| 2026-04-21 17:56 | 41.23589 | 16.58172 | 37909 ft | 394 kts | 301° |
| 2026-04-21 17:56 | 41.26499 | 16.51961 | 37913 ft | 394 kts | 300° |
| 2026-04-21 17:57 | 41.29375 | 16.45805 | 37920 ft | 394 kts | 300° |
| 2026-04-21 17:57 | 41.32273 | 16.39591 | 37927 ft | 394 kts | 300° |
| 2026-04-21 17:58 | 41.35161 | 16.33385 | 37928 ft | 395 kts | 300° |
| 2026-04-21 17:58 | 41.38053 | 16.27153 | 37931 ft | 395 kts | 300° |
| 2026-04-21 17:59 | 41.40914 | 16.20957 | 37935 ft | 395 kts | 300° |
| 2026-04-21 17:59 | 41.43798 | 16.14717 | 37932 ft | 396 kts | 300° |
| 2026-04-21 18:00 | 41.46682 | 16.08472 | 37933 ft | 396 kts | 300° |
| 2026-04-21 18:00 | 41.49568 | 16.02211 | 37934 ft | 396 kts | 300° |
| 2026-04-21 18:01 | 41.52450 | 15.95948 | 37937 ft | 396 kts | 300° |
| 2026-04-21 18:01 | 41.55326 | 15.89681 | 37941 ft | 396 kts | 300° |
| 2026-04-21 18:02 | 41.58204 | 15.83398 | 37943 ft | 396 kts | 300° |
| 2026-04-21 18:02 | 41.61060 | 15.77150 | 37942 ft | 396 kts | 300° |
| 2026-04-21 18:03 | 41.63930 | 15.70856 | 37945 ft | 396 kts | 300° |
| 2026-04-21 18:03 | 41.66799 | 15.64552 | 37940 ft | 396 kts | 300° |
| 2026-04-21 18:04 | 41.69661 | 15.58251 | 37937 ft | 396 kts | 300° |
| 2026-04-21 18:04 | 41.72513 | 15.51959 | 37933 ft | 395 kts | 300° |
| 2026-04-21 18:05 | 41.75361 | 15.45660 | 37940 ft | 395 kts | 300° |
| 2026-04-21 18:05 | 41.78184 | 15.39405 | 37937 ft | 395 kts | 300° |
| 2026-04-21 18:06 | 41.81018 | 15.33112 | 37942 ft | 394 kts | 300° |
| 2026-04-21 18:06 | 41.83853 | 15.26804 | 37945 ft | 394 kts | 300° |
| 2026-04-21 18:07 | 41.86660 | 15.20547 | 37945 ft | 393 kts | 300° |
| 2026-04-21 18:07 | 41.89560 | 15.14258 | 37948 ft | 394 kts | 301° |
| 2026-04-21 18:08 | 41.92546 | 15.08158 | 37952 ft | 394 kts | 301° |
| 2026-04-21 18:08 | 41.95550 | 15.01982 | 37956 ft | 393 kts | 301° |
| 2026-04-21 18:09 | 41.98515 | 14.95827 | 37956 ft | 393 kts | 301° |
| 2026-04-21 18:09 | 42.01475 | 14.89663 | 37962 ft | 393 kts | 301° |
| 2026-04-21 18:10 | 42.04452 | 14.83448 | 37967 ft | 393 kts | 301° |
| 2026-04-21 18:10 | 42.07403 | 14.77276 | 37968 ft | 394 kts | 301° |
| 2026-04-21 18:11 | 42.10369 | 14.71060 | 37968 ft | 394 kts | 301° |
| 2026-04-21 18:11 | 42.13322 | 14.64860 | 37971 ft | 394 kts | 301° |
| 2026-04-21 18:12 | 42.16267 | 14.58661 | 37975 ft | 395 kts | 301° |
| 2026-04-21 18:12 | 42.19232 | 14.52410 | 37976 ft | 395 kts | 301° |
| 2026-04-21 18:13 | 42.22192 | 14.46155 | 37989 ft | 396 kts | 301° |
| 2026-04-21 18:13 | 42.25143 | 14.39906 | 37999 ft | 396 kts | 301° |
| 2026-04-21 18:14 | 42.29573 | 14.30501 | 38016 ft | 397 kts | 300° |
| 2026-04-21 18:15 | 42.32538 | 14.24190 | 38026 ft | 397 kts | 300° |
| 2026-04-21 18:15 | 42.35490 | 14.17892 | 38029 ft | 397 kts | 300° |
| 2026-04-21 18:16 | 42.38443 | 14.11580 | 38021 ft | 396 kts | 300° |
| 2026-04-21 18:16 | 42.41381 | 14.05287 | 38024 ft | 396 kts | 300° |
| 2026-04-21 18:17 | 42.44323 | 13.98972 | 38013 ft | 395 kts | 300° |
| 2026-04-21 18:17 | 42.47241 | 13.92696 | 38011 ft | 394 kts | 300° |
| 2026-04-21 18:18 | 42.50161 | 13.86400 | 38007 ft | 394 kts | 300° |
| 2026-04-21 18:18 | 42.53080 | 13.80093 | 38008 ft | 395 kts | 300° |
| 2026-04-21 18:19 | 42.55977 | 13.73821 | 38012 ft | 395 kts | 300° |
| 2026-04-21 18:19 | 42.58905 | 13.67470 | 37998 ft | 393 kts | 300° |
| 2026-04-21 18:20 | 42.61795 | 13.61187 | 38001 ft | 392 kts | 300° |
| 2026-04-21 18:20 | 42.64660 | 13.54943 | 38001 ft | 392 kts | 300° |
| 2026-04-21 18:21 | 42.67540 | 13.48657 | 37999 ft | 391 kts | 300° |
| 2026-04-21 18:21 | 42.70440 | 13.42398 | 37996 ft | 391 kts | 301° |
| 2026-04-21 18:22 | 42.73390 | 13.36161 | 38000 ft | 391 kts | 301° |
| 2026-04-21 18:22 | 42.76320 | 13.29937 | 37994 ft | 390 kts | 301° |
| 2026-04-21 18:23 | 42.79237 | 13.23715 | 37998 ft | 390 kts | 301° |
| 2026-04-21 18:23 | 42.82155 | 13.17475 | 37995 ft | 390 kts | 301° |
| 2026-04-21 18:24 | 42.85065 | 13.11238 | 37992 ft | 391 kts | 301° |
| 2026-04-21 18:24 | 42.87976 | 13.04984 | 37997 ft | 391 kts | 301° |
| 2026-04-21 18:25 | 42.90891 | 12.98712 | 37992 ft | 391 kts | 301° |
| 2026-04-21 18:25 | 42.93800 | 12.92438 | 37979 ft | 391 kts | 301° |
| 2026-04-21 18:26 | 42.96706 | 12.86156 | 37979 ft | 391 kts | 301° |
| 2026-04-21 18:26 | 42.99586 | 12.79918 | 37970 ft | 391 kts | 301° |
| 2026-04-21 18:27 | 43.02489 | 12.73618 | 37959 ft | 391 kts | 300° |
| 2026-04-21 18:27 | 43.05389 | 12.67309 | 37942 ft | 391 kts | 300° |
| 2026-04-21 18:28 | 43.08269 | 12.61020 | 37966 ft | 389 kts | 300° |
| 2026-04-21 18:28 | 43.11141 | 12.54735 | 37967 ft | 390 kts | 300° |
| 2026-04-21 18:29 | 43.14019 | 12.48430 | 37965 ft | 390 kts | 300° |
| 2026-04-21 18:29 | 43.16407 | 12.43184 | 37968 ft | 390 kts | 300° |
| 2026-04-21 18:30 | 43.19275 | 12.36875 | 37965 ft | 390 kts | 300° |
| 2026-04-21 18:30 | 43.22139 | 12.30558 | 37971 ft | 391 kts | 300° |
| 2026-04-21 18:31 | 43.25006 | 12.24222 | 37972 ft | 391 kts | 300° |
| 2026-04-21 18:31 | 43.27854 | 12.17912 | 37982 ft | 392 kts | 300° |
| 2026-04-21 18:32 | 43.30736 | 12.11513 | 37972 ft | 391 kts | 300° |
| 2026-04-21 18:32 | 43.33564 | 12.05221 | 37976 ft | 389 kts | 300° |
| 2026-04-21 18:33 | 43.36406 | 11.98887 | 37971 ft | 390 kts | 300° |
| 2026-04-21 18:33 | 43.39251 | 11.92532 | 37973 ft | 390 kts | 300° |
| 2026-04-21 18:34 | 43.42087 | 11.86180 | 37975 ft | 390 kts | 300° |
| 2026-04-21 18:34 | 43.44920 | 11.79822 | 37967 ft | 389 kts | 300° |
| 2026-04-21 18:35 | 43.47746 | 11.73469 | 37961 ft | 389 kts | 300° |
| 2026-04-21 18:35 | 43.50545 | 11.67160 | 37955 ft | 388 kts | 300° |
| 2026-04-21 18:36 | 43.53362 | 11.60796 | 37955 ft | 388 kts | 300° |
| 2026-04-21 18:36 | 43.56156 | 11.54471 | 37949 ft | 388 kts | 300° |
| 2026-04-21 18:37 | 43.58970 | 11.48090 | 37940 ft | 387 kts | 300° |
| 2026-04-21 18:37 | 43.61751 | 11.41766 | 37936 ft | 387 kts | 300° |
| 2026-04-21 18:38 | 43.64547 | 11.35387 | 37698 ft | 390 kts | 300° |
| 2026-04-21 18:38 | 43.65947 | 11.32189 | 37419 ft | 388 kts | 300° |
| 2026-04-21 18:38 | 43.67340 | 11.29005 | 37138 ft | 386 kts | 300° |
| 2026-04-21 18:38 | 43.68729 | 11.25827 | 36879 ft | 386 kts | 300° |
| 2026-04-21 18:39 | 43.70117 | 11.22649 | 36615 ft | 386 kts | 300° |
| 2026-04-21 18:39 | 43.71503 | 11.19473 | 36355 ft | 386 kts | 300° |
| 2026-04-21 18:39 | 43.72877 | 11.16318 | 36099 ft | 385 kts | 300° |
| 2026-04-21 18:39 | 43.74258 | 11.13146 | 35850 ft | 385 kts | 300° |
| 2026-04-21 18:40 | 43.75639 | 11.09970 | 35596 ft | 384 kts | 300° |
| 2026-04-21 18:40 | 43.77018 | 11.06796 | 35347 ft | 384 kts | 300° |
| 2026-04-21 18:40 | 43.77926 | 11.04702 | 35173 ft | 384 kts | 300° |
| 2026-04-21 18:40 | 43.79771 | 11.00444 | 34346 ft | 388 kts | 300° |
| 2026-04-21 18:41 | 43.81169 | 10.97266 | 33435 ft | 393 kts | 301° |
| 2026-04-21 18:41 | 43.82605 | 10.94051 | 32733 ft | 390 kts | 301° |
| 2026-04-21 18:41 | 43.83992 | 10.90828 | 31968 ft | 388 kts | 298° |
| 2026-04-21 18:41 | 43.85220 | 10.87497 | 31209 ft | 388 kts | 297° |
| 2026-04-21 18:42 | 43.86446 | 10.84181 | 30691 ft | 384 kts | 297° |
| 2026-04-21 18:42 | 43.87657 | 10.80937 | 30233 ft | 382 kts | 297° |
| 2026-04-21 18:42 | 43.88890 | 10.77645 | 29379 ft | 386 kts | 297° |
| 2026-04-21 18:42 | 43.90135 | 10.74314 | 28327 ft | 390 kts | 297° |
| 2026-04-21 18:43 | 43.91387 | 10.70960 | 27596 ft | 388 kts | 297° |
| 2026-04-21 18:43 | 43.92594 | 10.67700 | 27164 ft | 380 kts | 297° |
| 2026-04-21 18:43 | 43.93798 | 10.64448 | 26593 ft | 378 kts | 297° |
| 2026-04-21 18:43 | 43.95001 | 10.61200 | 26044 ft | 375 kts | 297° |
| 2026-04-21 18:44 | 43.96197 | 10.57976 | 25464 ft | 374 kts | 297° |
| 2026-04-21 18:44 | 43.97384 | 10.54779 | 24895 ft | 371 kts | 297° |
| 2026-04-21 18:44 | 43.98544 | 10.51651 | 24340 ft | 365 kts | 297° |
| 2026-04-21 18:44 | 43.99699 | 10.48533 | 23784 ft | 361 kts | 297° |
| 2026-04-21 18:45 | 44.00846 | 10.45430 | 23153 ft | 360 kts | 297° |
| 2026-04-21 18:45 | 44.01981 | 10.42350 | 22587 ft | 357 kts | 296° |
| 2026-04-21 18:45 | 44.03104 | 10.39254 | 22010 ft | 357 kts | 296° |
| 2026-04-21 18:45 | 44.04224 | 10.36177 | 21455 ft | 358 kts | 296° |
| 2026-04-21 18:46 | 44.05362 | 10.33089 | 20859 ft | 356 kts | 296° |
| 2026-04-21 18:46 | 44.06474 | 10.30071 | 20293 ft | 352 kts | 296° |
| 2026-04-21 18:46 | 44.07574 | 10.27082 | 19715 ft | 345 kts | 296° |
| 2026-04-21 18:46 | 44.08675 | 10.24091 | 19169 ft | 345 kts | 296° |
| 2026-04-21 18:47 | 44.09764 | 10.21122 | 18669 ft | 343 kts | 296° |
| 2026-04-21 18:47 | 44.10844 | 10.18174 | 18045 ft | 340 kts | 296° |
| 2026-04-21 18:47 | 44.11917 | 10.15243 | 17394 ft | 337 kts | 296° |
| 2026-04-21 18:47 | 44.12983 | 10.12330 | 16858 ft | 338 kts | 297° |
| 2026-04-21 18:48 | 44.14053 | 10.09412 | 16293 ft | 338 kts | 296° |
| 2026-04-21 18:48 | 44.15115 | 10.06511 | 15742 ft | 334 kts | 296° |
| 2026-04-21 18:48 | 44.16168 | 10.03644 | 15194 ft | 330 kts | 297° |
| 2026-04-21 18:48 | 44.17194 | 10.00856 | 14978 ft | 317 kts | 297° |
| 2026-04-21 18:49 | 44.18179 | 9.98184 | 14913 ft | 304 kts | 298° |
| 2026-04-21 18:49 | 44.19166 | 9.95517 | 14910 ft | 316 kts | 297° |
| 2026-04-21 18:49 | 44.19835 | 9.93703 | 14891 ft | 317 kts | 297° |
| 2026-04-21 18:49 | 44.21013 | 9.89996 | 14773 ft | 309 kts | 285° |
| 2026-04-21 18:50 | 44.21412 | 9.87095 | 14372 ft | 310 kts | 282° |
| 2026-04-21 18:50 | 44.21730 | 9.84130 | 13913 ft | 307 kts | 280° |
| 2026-04-21 18:50 | 44.22026 | 9.81178 | 13422 ft | 308 kts | 280° |
| 2026-04-21 18:50 | 44.22326 | 9.78213 | 12960 ft | 308 kts | 280° |
| 2026-04-21 18:51 | 44.22643 | 9.75276 | 12497 ft | 307 kts | 280° |
| 2026-04-21 18:51 | 44.22971 | 9.72323 | 12020 ft | 308 kts | 279° |
| 2026-04-21 18:51 | 44.23289 | 9.69376 | 11567 ft | 306 kts | 279° |
| 2026-04-21 18:51 | 44.23610 | 9.66442 | 11144 ft | 305 kts | 280° |
| 2026-04-21 18:52 | 44.23938 | 9.63578 | 10979 ft | 290 kts | 280° |
| 2026-04-21 18:52 | 44.24243 | 9.60878 | 10707 ft | 275 kts | 279° |
| 2026-04-21 18:52 | 44.24538 | 9.58266 | 10133 ft | 273 kts | 279° |
| 2026-04-21 18:52 | 44.24841 | 9.55649 | 9473 ft | 273 kts | 279° |
| 2026-04-21 18:53 | 44.25141 | 9.53050 | 9031 ft | 270 kts | 280° |
| 2026-04-21 18:53 | 44.25440 | 9.50453 | 8610 ft | 276 kts | 279° |
| 2026-04-21 18:53 | 44.25738 | 9.47841 | 8191 ft | 270 kts | 279° |
| 2026-04-21 18:53 | 44.26033 | 9.45241 | 7770 ft | 272 kts | 279° |
| 2026-04-21 18:54 | 44.26321 | 9.42687 | 7627 ft | 259 kts | 279° |
| 2026-04-21 18:54 | 44.26590 | 9.40268 | 7344 ft | 249 kts | 279° |
| 2026-04-21 18:54 | 44.26856 | 9.37896 | 6956 ft | 243 kts | 279° |
| 2026-04-21 18:54 | 44.27113 | 9.35597 | 6653 ft | 235 kts | 279° |
| 2026-04-21 18:55 | 44.27283 | 9.34130 | 6487 ft | 228 kts | 280° |
| 2026-04-21 18:55 | 44.27615 | 9.31256 | 6176 ft | 227 kts | 279° |
| 2026-04-21 18:55 | 44.27858 | 9.29054 | 6054 ft | 228 kts | 279° |
| 2026-04-21 18:55 | 44.28095 | 9.26889 | 6025 ft | 227 kts | 279° |
| 2026-04-21 18:56 | 44.28509 | 9.24774 | 5963 ft | 227 kts | 300° |
| 2026-04-21 18:56 | 44.29561 | 9.23147 | 5738 ft | 229 kts | 322° |
| 2026-04-21 18:56 | 44.30815 | 9.21839 | 5396 ft | 226 kts | 323° |
| 2026-04-21 18:56 | 44.32078 | 9.20533 | 5054 ft | 226 kts | 323° |
| 2026-04-21 18:57 | 44.33239 | 9.19074 | 4886 ft | 225 kts | 308° |
| 2026-04-21 18:57 | 44.34038 | 9.17185 | 4712 ft | 228 kts | 293° |
| 2026-04-21 18:57 | 44.34573 | 9.15111 | 4448 ft | 226 kts | 287° |
| 2026-04-21 18:57 | 44.35011 | 9.13021 | 4161 ft | 221 kts | 287° |
| 2026-04-21 18:58 | 44.35450 | 9.11001 | 3856 ft | 214 kts | 287° |
| 2026-04-21 18:58 | 44.35874 | 9.09044 | 3590 ft | 207 kts | 287° |
| 2026-04-21 18:58 | 44.36285 | 9.07147 | 3314 ft | 201 kts | 287° |
| 2026-04-21 18:58 | 44.36678 | 9.05329 | 3071 ft | 190 kts | 287° |
| 2026-04-21 18:59 | 44.37048 | 9.03617 | 2791 ft | 176 kts | 287° |
| 2026-04-21 18:59 | 44.37388 | 9.02044 | 2544 ft | 161 kts | 287° |
| 2026-04-21 18:59 | 44.37708 | 9.00594 | 2377 ft | 160 kts | 289° |
| 2026-04-21 18:59 | 44.38091 | 8.99110 | 2132 ft | 164 kts | 290° |
| 2026-04-21 19:00 | 44.38447 | 8.97643 | 1856 ft | 155 kts | 288° |
| 2026-04-21 19:00 | 44.38810 | 8.96275 | 1553 ft | 146 kts | 289° |
| 2026-04-21 19:00 | 44.39114 | 8.94850 | 1298 ft | 156 kts | 284° |
| 2026-04-21 19:00 | 44.39386 | 8.93400 | 1094 ft | 152 kts | 284° |
| 2026-04-21 19:01 | 44.39666 | 8.91995 | 931 ft | 148 kts | 284° |
| 2026-04-21 19:01 | 44.39933 | 8.90629 | 711 ft | 147 kts | 284° |
| 2026-04-21 19:01 | 44.40194 | 8.89274 | 504 ft | 142 kts | 283° |
| 2026-04-21 19:01 | 44.40447 | 8.87958 | 348 ft | 138 kts | 284° |
| 2026-04-21 19:02 | 44.40705 | 8.86653 | 184 ft | 139 kts | 283° |
| 2026-04-21 19:02 | 44.40962 | 8.85352 | 33 ft | 136 kts | 284° |
| 2026-04-21 19:02 | 44.41189 | 8.84206 | 23 ft | 99 kts | 286° |
| 2026-04-21 19:02 | 44.41318 | 8.83548 | 21 ft | 45 kts | 286° |
| 2026-04-21 19:03 | 44.41421 | 8.83160 | 24 ft | 36 kts | 310° |
| 2026-04-21 19:03 | 44.41521 | 8.83098 | 27 ft | 10 kts | 32° |
| 2026-04-21 19:03 | 44.41545 | 8.83165 | 25 ft | 8 kts | 96° |
| 2026-04-21 19:03 | 44.41533 | 8.83252 | 27 ft | 11 kts | 107° |
| 2026-04-21 19:04 | 44.41506 | 8.83380 | 24 ft | 16 kts | 106° |
| 2026-04-21 19:04 | 44.41474 | 8.83546 | 21 ft | 19 kts | 105° |
| 2026-04-21 19:04 | 44.41436 | 8.83741 | 19 ft | 23 kts | 105° |
| 2026-04-21 19:04 | 44.41393 | 8.83963 | 19 ft | 25 kts | 104° |
| 2026-04-21 19:05 | 44.41345 | 8.84208 | 16 ft | 27 kts | 107° |
| 2026-04-21 19:05 | 44.41317 | 8.84412 | 21 ft | 18 kts | 68° |
| 2026-04-21 19:05 | 44.41399 | 8.84562 | 18 ft | 19 kts | 52° |
| 2026-04-21 19:05 | 44.41396 | 8.84721 | 19 ft | 18 kts | 104° |
| 2026-04-21 19:06 | 44.41375 | 8.84835 | 18 ft | 10 kts | 105° |
| 2026-04-21 19:06 | 44.41369 | 8.84866 | 20 ft | 2 kts | 105° |
| 2026-04-21 19:06 | 44.41364 | 8.84890 | 18 ft | 3 kts | 105° |
| 2026-04-21 19:06 | 44.41355 | 8.84936 | 19 ft | 7 kts | 104° |
| 2026-04-21 19:07 | 44.41342 | 8.85018 | 19 ft | 10 kts | 104° |
| 2026-04-21 19:07 | 44.41345 | 8.85088 | 19 ft | 6 kts | 34° |
| 2026-04-21 19:07 | 44.41389 | 8.85100 | 18 ft | 4 kts | 14° |
| 2026-04-21 19:07 | 44.41407 | 8.85106 | 18 ft | 0 kts | 14° |